createdAt,value
2023-01-10T00:00:05.617Z,23.06
2023-01-10T00:02:32.014Z,23.05
2023-01-10T00:04:58.346Z,23.05
2023-01-10T00:07:24.719Z,23.04
2023-01-10T00:09:51.087Z,23.00
2023-01-10T00:12:17.459Z,22.94
2023-01-10T00:14:43.822Z,22.94
2023-01-10T00:17:10.189Z,22.94
2023-01-10T00:19:36.535Z,22.92
2023-01-10T00:22:02.929Z,22.93
2023-01-10T00:24:29.298Z,22.94
2023-01-10T00:26:55.696Z,22.96
2023-01-10T00:29:22.080Z,22.96
2023-01-10T00:31:48.454Z,22.93
2023-01-10T00:34:14.801Z,22.93
2023-01-10T00:36:41.198Z,22.92
2023-01-10T00:39:07.530Z,22.93
2023-01-10T00:41:33.926Z,22.93
2023-01-10T00:44:00.276Z,22.94
2023-01-10T00:46:26.703Z,22.89
2023-01-10T00:48:53.024Z,22.90
2023-01-10T00:51:19.388Z,22.88
2023-01-10T00:53:45.723Z,22.88
2023-01-10T00:56:12.122Z,22.87
2023-01-10T00:58:38.467Z,22.88
2023-01-10T01:01:04.911Z,22.89
2023-01-10T01:03:31.191Z,22.89
2023-01-10T01:05:57.579Z,22.88
2023-01-10T01:08:24.009Z,22.89
2023-01-10T01:10:50.386Z,22.90
2023-01-10T01:13:16.728Z,22.87
2023-01-10T01:15:43.163Z,22.88
2023-01-10T01:18:09.472Z,22.86
2023-01-10T01:20:35.909Z,22.87
2023-01-10T01:23:02.239Z,22.86
2023-01-10T01:25:28.607Z,22.87
2023-01-10T01:27:54.959Z,22.85
2023-01-10T01:30:21.351Z,22.85
2023-01-10T01:32:47.673Z,22.87
2023-01-10T01:35:14.067Z,22.87
2023-01-10T01:37:40.430Z,22.86
2023-01-10T01:40:06.814Z,22.85
2023-01-10T01:42:33.158Z,22.85
2023-01-10T01:44:59.551Z,22.84
2023-01-10T01:47:25.927Z,22.85
2023-01-10T01:49:52.330Z,22.79
2023-01-10T01:52:18.675Z,22.82
2023-01-10T01:54:45.094Z,22.81
2023-01-10T01:57:11.441Z,22.82
2023-01-10T01:59:37.856Z,22.80
2023-01-10T02:02:04.301Z,22.80
2023-01-10T02:04:30.595Z,22.78
2023-01-10T02:06:56.928Z,22.79
2023-01-10T02:09:23.314Z,22.82
2023-01-10T02:11:49.665Z,22.80
2023-01-10T02:14:16.049Z,22.79
2023-01-10T02:16:42.401Z,22.80
2023-01-10T02:19:08.776Z,22.80
2023-01-10T02:21:35.113Z,22.79
2023-01-10T02:24:01.506Z,22.78
2023-01-10T02:26:27.850Z,22.76
2023-01-10T02:28:54.239Z,22.79
2023-01-10T02:31:20.639Z,22.79
2023-01-10T02:33:46.969Z,22.79
2023-01-10T02:36:13.319Z,22.78
2023-01-10T02:38:39.707Z,22.77
2023-01-10T02:41:06.077Z,22.77
2023-01-10T02:43:32.441Z,22.76
2023-01-10T02:45:58.790Z,22.76
2023-01-10T02:48:25.207Z,22.79
2023-01-10T02:50:51.555Z,22.78
2023-01-10T02:53:17.938Z,22.78
2023-01-10T02:55:44.310Z,22.75
2023-01-10T02:58:10.704Z,22.77
2023-01-10T03:00:37.046Z,22.75
2023-01-10T03:03:03.438Z,22.77
2023-01-10T03:05:29.773Z,22.74
2023-01-10T03:07:56.212Z,22.76
2023-01-10T03:10:22.575Z,22.66
2023-01-10T03:12:51.145Z,22.65
2023-01-10T03:15:17.486Z,22.67
2023-01-10T03:17:43.872Z,22.72
2023-01-10T03:20:10.224Z,22.76
2023-01-10T03:22:36.637Z,22.75
2023-01-10T03:25:02.968Z,22.76
2023-01-10T03:27:29.391Z,22.74
2023-01-10T03:29:55.748Z,22.73
2023-01-10T03:32:22.167Z,22.76
2023-01-10T03:34:48.497Z,22.77
2023-01-10T03:37:14.879Z,22.77
2023-01-10T03:39:41.215Z,22.76
2023-01-10T03:42:07.601Z,22.75
2023-01-10T03:44:33.949Z,22.78
2023-01-10T03:47:00.334Z,22.80
2023-01-10T03:49:26.696Z,22.79
2023-01-10T03:51:53.071Z,22.78
2023-01-10T03:54:19.441Z,22.78
2023-01-10T03:56:45.829Z,22.76
2023-01-10T03:59:15.263Z,22.79
2023-01-10T04:01:41.705Z,22.76
2023-01-10T04:04:08.003Z,22.78
2023-01-10T04:06:36.438Z,22.78
2023-01-10T04:09:00.772Z,22.76
2023-01-10T04:11:27.155Z,22.75
2023-01-10T04:13:53.501Z,22.75
2023-01-10T04:16:19.947Z,22.75
2023-01-10T04:18:46.243Z,22.75
2023-01-10T04:21:12.640Z,22.74
2023-01-10T04:23:38.984Z,22.73
2023-01-10T04:26:05.379Z,22.76
2023-01-10T04:28:31.730Z,22.75
2023-01-10T04:30:58.120Z,22.75
2023-01-10T04:33:24.458Z,22.76
2023-01-10T04:35:50.844Z,22.78
2023-01-10T04:38:17.183Z,22.78
2023-01-10T04:40:43.580Z,22.78
2023-01-10T04:43:09.923Z,22.79
2023-01-10T04:45:36.460Z,22.79
2023-01-10T04:48:02.670Z,22.78
2023-01-10T04:50:29.065Z,22.80
2023-01-10T04:52:55.392Z,22.82
2023-01-10T04:55:21.772Z,22.84
2023-01-10T04:57:48.118Z,22.84
2023-01-10T05:00:14.500Z,22.85
2023-01-10T05:02:40.965Z,22.87
2023-01-10T05:05:08.575Z,22.87
2023-01-10T05:07:33.586Z,22.87
2023-01-10T05:09:59.972Z,22.88
2023-01-10T05:12:26.319Z,22.90
2023-01-10T05:14:52.720Z,22.91
2023-01-10T05:17:19.070Z,22.93
2023-01-10T05:19:45.488Z,22.97
2023-01-10T05:22:11.796Z,23.00
2023-01-10T05:24:38.197Z,23.03
2023-01-10T05:27:04.546Z,23.05
2023-01-10T05:29:30.925Z,23.16
2023-01-10T05:31:57.365Z,23.16
2023-01-10T05:34:23.731Z,23.15
2023-01-10T05:36:50.065Z,23.16
2023-01-10T05:39:16.456Z,23.16
2023-01-10T05:41:42.806Z,23.22
2023-01-10T05:44:09.199Z,23.28
2023-01-10T05:46:35.549Z,23.27
2023-01-10T05:49:01.930Z,23.31
2023-01-10T05:51:28.279Z,23.37
2023-01-10T05:53:54.653Z,23.38
2023-01-10T05:56:20.999Z,23.32
2023-01-10T05:58:51.380Z,23.29
2023-01-10T06:01:13.798Z,23.33
2023-01-10T06:03:40.122Z,23.45
2023-01-10T06:06:06.470Z,23.48
2023-01-10T06:08:32.873Z,23.53
2023-01-10T06:11:00.341Z,23.58
2023-01-10T06:13:25.601Z,23.60
2023-01-10T06:15:52.008Z,23.58
2023-01-10T06:18:18.335Z,23.62
2023-01-10T06:20:44.715Z,23.64
2023-01-10T06:23:11.170Z,23.65
2023-01-10T06:25:37.516Z,23.68
2023-01-10T06:28:03.942Z,23.69
2023-01-10T06:30:30.264Z,23.72
2023-01-10T06:32:56.638Z,23.78
2023-01-10T06:35:22.987Z,23.86
2023-01-10T06:37:49.369Z,23.84
2023-01-10T06:40:15.759Z,23.92
2023-01-10T06:42:42.718Z,23.97
2023-01-10T06:45:09.071Z,24.04
2023-01-10T06:47:35.567Z,24.00
2023-01-10T06:50:01.974Z,24.08
2023-01-10T06:52:28.357Z,24.10
2023-01-10T06:54:54.703Z,24.12
2023-01-10T06:57:21.098Z,24.17
2023-01-10T06:59:47.445Z,24.12
2023-01-10T07:02:14.947Z,24.19
2023-01-10T07:04:41.232Z,24.17
2023-01-10T07:07:07.623Z,24.22
2023-01-10T07:09:33.960Z,24.21
2023-01-10T07:12:00.352Z,24.28
2023-01-10T07:14:26.694Z,24.31
2023-01-10T07:16:53.129Z,24.33
2023-01-10T07:19:19.468Z,24.30
2023-01-10T07:21:45.866Z,24.18
2023-01-10T07:24:12.222Z,24.36
2023-01-10T07:26:38.611Z,24.45
2023-01-10T07:29:04.965Z,24.47
2023-01-10T07:31:31.369Z,24.45
2023-01-10T07:33:57.700Z,24.50
2023-01-10T07:36:24.082Z,24.51
2023-01-10T07:38:50.430Z,24.54
2023-01-10T07:41:16.824Z,24.53
2023-01-10T07:43:43.188Z,24.61
2023-01-10T07:46:09.763Z,24.45
2023-01-10T07:48:35.974Z,24.64
2023-01-10T07:51:02.351Z,24.68
2023-01-10T07:53:28.696Z,24.62
2023-01-10T07:55:55.079Z,24.56
2023-01-10T07:58:21.429Z,24.60
2023-01-10T08:00:47.855Z,24.60
2023-01-10T08:03:14.325Z,24.65
2023-01-10T08:05:40.573Z,24.70
2023-01-10T08:08:06.997Z,24.72
2023-01-10T08:10:33.351Z,24.74
2023-01-10T08:13:13.246Z,24.88
2023-01-10T08:15:26.145Z,24.92
2023-01-10T08:17:52.515Z,24.90
2023-01-10T08:20:18.886Z,24.85
2023-01-10T08:22:45.264Z,24.93
2023-01-10T08:25:11.634Z,24.88
2023-01-10T08:27:38.043Z,24.88
2023-01-10T08:30:04.384Z,24.94
2023-01-10T08:32:30.804Z,24.91
2023-01-10T08:34:57.146Z,24.94
2023-01-10T08:37:23.543Z,24.95
2023-01-10T08:39:49.878Z,24.80
2023-01-10T08:42:16.280Z,24.80
2023-01-10T08:44:42.667Z,24.85
2023-01-10T08:47:09.047Z,24.85
2023-01-10T08:49:35.411Z,24.91
2023-01-10T08:52:01.812Z,24.84
2023-01-10T08:54:28.182Z,24.97
2023-01-10T08:56:54.579Z,24.97
2023-01-10T08:59:21.054Z,24.96
2023-01-10T09:01:47.542Z,24.97
2023-01-10T09:04:13.837Z,25.11
2023-01-10T09:06:40.227Z,25.02
2023-01-10T09:09:06.570Z,24.99
2023-01-10T09:11:32.969Z,25.07
2023-01-10T09:13:59.425Z,25.17
2023-01-10T09:16:25.899Z,25.14
2023-01-10T09:18:52.280Z,25.27
2023-01-10T09:21:18.685Z,25.08
2023-01-10T09:23:45.018Z,25.08
2023-01-10T09:26:11.421Z,25.04
2023-01-10T09:28:37.759Z,25.17
2023-01-10T09:31:04.200Z,25.06
2023-01-10T09:33:45.220Z,25.06
2023-01-10T09:35:56.885Z,25.14
2023-01-10T09:38:23.249Z,25.24
2023-01-10T09:40:49.623Z,25.14
2023-01-10T09:43:15.974Z,25.15
2023-01-10T09:45:42.373Z,25.06
2023-01-10T09:48:08.732Z,25.14
2023-01-10T09:50:35.138Z,25.08
2023-01-10T09:53:01.487Z,24.97
2023-01-10T09:55:27.909Z,25.14
2023-01-10T09:57:54.237Z,25.11
2023-01-10T10:00:20.668Z,25.11
2023-01-10T10:02:49.033Z,25.10
2023-01-10T10:05:13.448Z,25.06
2023-01-10T10:07:39.795Z,25.04
2023-01-10T10:10:06.212Z,24.89
2023-01-10T10:12:32.584Z,24.94
2023-01-10T10:14:59.028Z,24.94
2023-01-10T10:17:25.385Z,25.08
2023-01-10T10:19:51.791Z,25.04
2023-01-10T10:22:19.895Z,24.98
2023-01-10T10:24:44.518Z,24.98
2023-01-10T10:27:10.869Z,25.04
2023-01-10T10:29:37.296Z,25.06
2023-01-10T10:32:03.637Z,25.03
2023-01-10T10:34:30.035Z,24.95
2023-01-10T10:36:56.394Z,25.13
2023-01-10T10:39:22.792Z,25.19
2023-01-10T10:41:49.209Z,25.12
2023-01-10T10:44:15.588Z,25.29
2023-01-10T10:46:41.945Z,25.06
2023-01-10T10:49:08.318Z,25.15
2023-01-10T10:51:34.794Z,25.28
2023-01-10T10:54:01.118Z,25.21
2023-01-10T10:56:27.470Z,25.24
2023-01-10T10:58:53.848Z,25.19
2023-01-10T11:01:20.296Z,25.12
2023-01-10T11:03:46.579Z,25.13
2023-01-10T11:06:12.924Z,25.21
2023-01-10T11:08:39.308Z,25.21
2023-01-10T11:11:05.706Z,25.22
2023-01-10T11:13:32.102Z,25.11
2023-01-10T11:15:58.514Z,25.12
2023-01-10T11:18:24.834Z,25.20
2023-01-10T11:20:51.202Z,25.13
2023-01-10T11:23:17.600Z,25.13
2023-01-10T11:25:43.943Z,25.09
2023-01-10T11:28:11.156Z,25.07
2023-01-10T11:30:36.711Z,25.08
2023-01-10T11:33:03.115Z,25.04
2023-01-10T11:35:29.427Z,25.00
2023-01-10T11:37:55.822Z,24.99
2023-01-10T11:40:22.178Z,25.01
2023-01-10T11:42:48.557Z,25.00
2023-01-10T11:45:15.019Z,25.23
2023-01-10T11:47:45.319Z,25.23
2023-01-10T11:50:07.737Z,25.18
2023-01-10T11:52:34.182Z,25.40
2023-01-10T11:55:00.636Z,25.37
2023-01-10T11:57:27.023Z,25.22
2023-01-10T11:59:53.367Z,25.14
2023-01-10T12:02:19.792Z,25.15
2023-01-10T12:04:46.101Z,25.20
2023-01-10T12:07:12.511Z,25.10
2023-01-10T12:09:38.843Z,25.32
2023-01-10T12:12:05.243Z,25.25
2023-01-10T12:14:31.589Z,25.27
2023-01-10T12:17:00.519Z,25.16
2023-01-10T12:19:26.772Z,25.18
2023-01-10T12:21:53.189Z,25.04
2023-01-10T12:24:19.534Z,25.14
2023-01-10T12:26:45.928Z,24.97
2023-01-10T12:29:12.286Z,25.06
2023-01-10T12:31:38.656Z,25.02
2023-01-10T12:34:05.016Z,24.94
2023-01-10T12:36:31.408Z,25.02
2023-01-10T12:38:57.756Z,25.04
2023-01-10T12:41:24.152Z,25.15
2023-01-10T12:43:50.499Z,24.97
2023-01-10T12:46:31.713Z,24.91
2023-01-10T12:48:43.263Z,24.91
2023-01-10T12:51:09.672Z,24.88
2023-01-10T12:53:36.031Z,24.87
2023-01-10T12:56:02.435Z,24.74
2023-01-10T12:58:28.793Z,24.87
2023-01-10T13:00:55.215Z,24.87
2023-01-10T13:03:21.553Z,24.83
2023-01-10T13:05:47.956Z,25.32
2023-01-10T13:08:14.307Z,25.32
2023-01-10T13:10:40.691Z,25.03
2023-01-10T13:13:07.045Z,24.91
2023-01-10T13:15:33.519Z,25.02
2023-01-10T13:17:59.797Z,25.02
2023-01-10T13:20:26.187Z,25.08
2023-01-10T13:22:52.516Z,24.76
2023-01-10T13:25:18.906Z,24.70
2023-01-10T13:27:45.242Z,24.70
2023-01-10T13:30:11.624Z,24.72
2023-01-10T13:32:40.162Z,24.79
2023-01-10T13:35:06.551Z,24.79
2023-01-10T13:37:32.903Z,24.64
2023-01-10T13:39:59.331Z,24.65
2023-01-10T13:42:25.670Z,24.64
2023-01-10T13:44:52.068Z,24.71
2023-01-10T13:47:18.454Z,24.62
2023-01-10T13:49:44.838Z,24.61
2023-01-10T13:52:11.180Z,24.69
2023-01-10T13:54:37.577Z,24.69
2023-01-10T13:57:03.925Z,24.76
2023-01-10T13:59:30.344Z,24.69
2023-01-10T14:01:56.823Z,24.60
2023-01-10T14:04:23.129Z,24.66
2023-01-10T14:06:49.453Z,24.58
2023-01-10T14:09:15.849Z,24.58
2023-01-10T14:11:42.233Z,24.46
2023-01-10T14:14:08.614Z,24.46
2023-01-10T14:16:34.953Z,24.47
2023-01-10T14:19:01.348Z,24.44
2023-01-10T14:21:27.684Z,24.60
2023-01-10T14:23:54.140Z,24.60
2023-01-10T14:26:20.507Z,24.59
2023-01-10T14:28:46.892Z,24.46
2023-01-10T14:31:13.293Z,24.60
2023-01-10T14:33:39.634Z,24.53
2023-01-10T14:36:05.986Z,24.56
2023-01-10T14:38:32.374Z,24.43
2023-01-10T14:40:58.723Z,24.34
2023-01-10T14:43:25.196Z,24.39
2023-01-10T14:45:51.524Z,24.39
2023-01-10T14:48:17.926Z,24.42
2023-01-10T14:50:44.260Z,24.42
2023-01-10T14:53:10.671Z,24.45
2023-01-10T14:55:37.059Z,24.57
2023-01-10T14:58:03.439Z,24.57
2023-01-10T15:00:29.819Z,24.53
2023-01-10T15:02:56.185Z,24.50
2023-01-10T15:05:22.531Z,24.51
2023-01-10T15:07:50.639Z,24.51
2023-01-10T15:10:15.259Z,24.45
2023-01-10T15:12:41.664Z,24.32
2023-01-10T15:15:08.041Z,24.45
2023-01-10T15:17:34.408Z,24.47
2023-01-10T15:20:00.756Z,24.46
2023-01-10T15:22:27.145Z,24.47
2023-01-10T15:24:53.531Z,24.43
2023-01-10T15:27:19.915Z,24.43
2023-01-10T15:29:46.269Z,24.38
2023-01-10T15:32:12.845Z,24.38
2023-01-10T15:34:39.180Z,24.35
2023-01-10T15:37:05.567Z,24.30
2023-01-10T15:39:31.944Z,24.32
2023-01-10T15:41:58.350Z,24.30
2023-01-10T15:44:25.759Z,24.27
2023-01-10T15:46:51.188Z,24.45
2023-01-10T15:49:17.434Z,24.45
2023-01-10T15:51:43.851Z,24.40
2023-01-10T15:54:10.190Z,24.40
2023-01-10T15:56:36.589Z,24.40
2023-01-10T15:59:03.192Z,24.41
2023-01-10T16:01:29.675Z,24.41
2023-01-10T16:03:55.884Z,24.36
2023-01-10T16:06:22.279Z,24.37
2023-01-10T16:08:48.619Z,24.29
2023-01-10T16:11:15.051Z,24.34
2023-01-10T16:13:41.413Z,24.35
2023-01-10T16:16:07.869Z,24.32
2023-01-10T16:18:34.204Z,24.19
2023-01-10T16:21:00.622Z,24.17
2023-01-10T16:23:26.998Z,24.11
2023-01-10T16:25:53.403Z,24.22
2023-01-10T16:28:19.723Z,24.30
2023-01-10T16:30:46.119Z,24.32
2023-01-10T16:33:12.520Z,24.32
2023-01-10T16:35:38.900Z,24.29
2023-01-10T16:38:05.259Z,24.24
2023-01-10T16:40:31.639Z,24.23
2023-01-10T16:42:57.981Z,24.22
2023-01-10T16:45:24.473Z,24.18
2023-01-10T16:47:50.709Z,24.14
2023-01-10T16:50:17.094Z,24.16
2023-01-10T16:52:43.437Z,24.21
2023-01-10T16:55:09.834Z,24.14
2023-01-10T16:57:36.249Z,24.11
2023-01-10T17:00:02.666Z,24.04
2023-01-10T17:02:29.012Z,24.14
2023-01-10T17:04:55.398Z,24.11
2023-01-10T17:07:21.758Z,24.14
2023-01-10T17:09:49.404Z,24.13
2023-01-10T17:12:14.508Z,24.10
2023-01-10T17:14:40.947Z,24.14
2023-01-10T17:17:07.302Z,24.05
2023-01-10T17:19:33.688Z,24.01
2023-01-10T17:22:00.031Z,23.99
2023-01-10T17:24:26.428Z,23.99
2023-01-10T17:26:52.784Z,24.01
2023-01-10T17:29:19.164Z,23.92
2023-01-10T17:31:45.534Z,23.87
2023-01-10T17:34:11.906Z,23.95
2023-01-10T17:36:38.229Z,23.96
2023-01-10T17:39:04.662Z,23.96
2023-01-10T17:41:30.993Z,23.87
2023-01-10T17:43:57.384Z,23.87
2023-01-10T17:46:23.753Z,24.00
2023-01-10T17:48:50.123Z,23.99
2023-01-10T17:51:16.465Z,23.88
2023-01-10T17:53:42.851Z,23.82
2023-01-10T17:56:09.206Z,23.85
2023-01-10T17:58:35.598Z,23.90
2023-01-10T18:01:02.069Z,23.91
2023-01-10T18:03:28.336Z,23.77
2023-01-10T18:05:54.714Z,23.75
2023-01-10T18:08:21.088Z,23.72
2023-01-10T18:10:47.432Z,23.72
2023-01-10T18:13:13.811Z,23.71
2023-01-10T18:15:40.206Z,23.73
2023-01-10T18:18:06.590Z,23.84
2023-01-10T18:20:32.934Z,23.89
2023-01-10T18:22:59.320Z,23.87
2023-01-10T18:25:25.706Z,23.85
2023-01-10T18:27:52.011Z,23.83
2023-01-10T18:30:18.415Z,23.81
2023-01-10T18:32:44.796Z,23.78
2023-01-10T18:35:11.193Z,23.77
2023-01-10T18:37:37.542Z,23.75
2023-01-10T18:40:03.947Z,23.76
2023-01-10T18:42:30.284Z,23.75
2023-01-10T18:44:56.674Z,23.77
2023-01-10T18:47:23.020Z,23.74
2023-01-10T18:49:49.518Z,23.73
2023-01-10T18:52:15.760Z,23.72
2023-01-10T18:54:42.149Z,23.70
2023-01-10T18:57:08.497Z,23.75
2023-01-10T18:59:34.883Z,23.75
2023-01-10T19:02:01.233Z,23.66
2023-01-10T19:04:27.620Z,23.60
2023-01-10T19:06:56.663Z,23.65
2023-01-10T19:09:20.348Z,23.71
2023-01-10T19:11:46.684Z,23.72
2023-01-10T19:14:13.078Z,23.71
2023-01-10T19:16:39.432Z,23.69
2023-01-10T19:19:05.871Z,23.67
2023-01-10T19:21:32.211Z,23.55
2023-01-10T19:23:58.597Z,23.60
2023-01-10T19:26:24.947Z,23.63
2023-01-10T19:28:51.336Z,23.62
2023-01-10T19:31:17.725Z,23.64
2023-01-10T19:33:44.078Z,23.62
2023-01-10T19:36:10.418Z,23.60
2023-01-10T19:38:36.820Z,23.58
2023-01-10T19:41:03.161Z,23.57
2023-01-10T19:43:29.600Z,23.56
2023-01-10T19:45:56.066Z,23.54
2023-01-10T19:48:22.357Z,23.51
2023-01-10T19:50:51.175Z,23.50
2023-01-10T19:53:17.566Z,23.50
2023-01-10T19:55:45.365Z,23.41
2023-01-10T19:58:10.643Z,23.48
2023-01-10T20:00:36.987Z,23.48
2023-01-10T20:03:03.440Z,23.37
2023-01-10T20:05:29.761Z,23.45
2023-01-10T20:07:56.119Z,23.46
2023-01-10T20:10:24.927Z,23.45
2023-01-10T20:12:51.312Z,23.44
2023-01-10T20:15:17.670Z,23.40
2023-01-10T20:17:44.041Z,23.37
2023-01-10T20:20:10.384Z,23.35
2023-01-10T20:22:36.766Z,23.35
2023-01-10T20:25:03.115Z,23.36
2023-01-10T20:27:29.536Z,23.34
2023-01-10T20:29:55.873Z,23.33
2023-01-10T20:32:22.360Z,23.33
2023-01-10T20:34:48.708Z,23.33
2023-01-10T20:37:15.091Z,23.32
2023-01-10T20:39:41.433Z,23.28
2023-01-10T20:42:07.826Z,23.32
2023-01-10T20:44:34.176Z,23.29
2023-01-10T20:47:00.556Z,23.31
2023-01-10T20:49:26.938Z,23.23
2023-01-10T20:51:53.319Z,23.29
2023-01-10T20:54:19.689Z,23.28
2023-01-10T20:56:46.086Z,23.30
2023-01-10T20:59:12.413Z,23.28
2023-01-10T21:01:38.852Z,23.27
2023-01-10T21:04:05.179Z,23.26
2023-01-10T21:06:31.602Z,23.22
2023-01-10T21:08:57.898Z,23.26
2023-01-10T21:11:24.285Z,23.20
2023-01-10T21:13:50.629Z,23.23
2023-01-10T21:16:17.049Z,23.17
2023-01-10T21:18:43.354Z,23.18
2023-01-10T21:21:09.738Z,23.21
2023-01-10T21:23:36.107Z,23.20
2023-01-10T21:26:02.499Z,23.15
2023-01-10T21:28:28.837Z,23.19
2023-01-10T21:30:55.222Z,23.12
2023-01-10T21:33:21.564Z,23.15
2023-01-10T21:35:47.947Z,23.18
2023-01-10T21:38:14.342Z,23.19
2023-01-10T21:40:40.732Z,23.14
2023-01-10T21:43:07.073Z,23.17
2023-01-10T21:45:33.456Z,23.17
2023-01-10T21:47:59.815Z,23.15
2023-01-10T21:50:26.189Z,23.05
2023-01-10T21:52:52.535Z,23.01
2023-01-10T21:55:18.920Z,23.00
2023-01-10T21:57:46.950Z,23.00
2023-01-10T22:00:11.692Z,22.99
2023-01-10T22:02:38.029Z,22.97
2023-01-10T22:05:04.452Z,22.98
2023-01-10T22:07:30.799Z,22.97
2023-01-10T22:09:57.169Z,22.95
2023-01-10T22:12:23.517Z,22.93
2023-01-10T22:14:49.904Z,22.96
2023-01-10T22:17:16.253Z,22.95
2023-01-10T22:19:42.633Z,22.92
2023-01-10T22:22:08.978Z,22.94
2023-01-10T22:24:35.367Z,22.93
2023-01-10T22:27:01.751Z,22.93
2023-01-10T22:29:28.121Z,22.95
2023-01-10T22:31:54.578Z,22.94
2023-01-10T22:34:20.889Z,22.83
2023-01-10T22:36:47.265Z,22.99
2023-01-10T22:39:13.651Z,22.94
2023-01-10T22:41:39.989Z,22.99
2023-01-10T22:44:06.378Z,22.96
2023-01-10T22:46:32.746Z,23.00
2023-01-10T22:48:59.131Z,22.88
2023-01-10T22:51:25.463Z,22.85
2023-01-10T22:53:51.855Z,22.82
2023-01-10T22:56:18.186Z,22.82
2023-01-10T22:58:44.614Z,22.82
2023-01-10T23:01:10.947Z,22.81
2023-01-10T23:03:37.318Z,22.81
2023-01-10T23:06:03.641Z,22.81
2023-01-10T23:08:31.224Z,22.81
2023-01-10T23:10:56.355Z,22.79
2023-01-10T23:13:22.716Z,22.79
2023-01-10T23:15:49.065Z,22.80
2023-01-10T23:18:15.414Z,22.80
2023-01-10T23:20:41.762Z,22.81
2023-01-10T23:23:08.117Z,22.84
2023-01-10T23:25:34.459Z,22.78
2023-01-10T23:28:00.815Z,22.78
2023-01-10T23:30:27.152Z,22.75
2023-01-10T23:32:53.499Z,22.75
2023-01-10T23:35:19.841Z,22.73
2023-01-10T23:37:49.290Z,22.75
2023-01-10T23:40:15.662Z,22.73
2023-01-10T23:42:42.012Z,22.75
2023-01-10T23:45:08.357Z,22.73
2023-01-10T23:47:34.707Z,22.72
2023-01-10T23:50:01.085Z,22.71
2023-01-10T23:52:27.422Z,22.69
2023-01-10T23:54:53.769Z,22.70
2023-01-10T23:57:20.123Z,22.69
2023-01-10T23:59:46.467Z,22.70
